Time;durP1;ratioP1;P1;durP2;ratioP2;P2;SDS_P1;SDS_P2;PMS_P1;PMS_P2;Temp;Humidity;BMP_temperature;BMP_pressure;BME280_temperature;BME280_humidity;BME280_pressure;Samples;Min_cycle;Max_cycle;Signal;HPM_P1;HPM_P2
2021/12/17 00:00:05;;;;;;;30.83;11.73;;;6.40;99.90;;;;;;5076355;28;20450;-74
2021/12/17 00:05:18;;;;;;;19.63;11.33;;;6.30;99.90;;;;;;5076145;28;20464;-74
2021/12/17 00:07:44;;;;;;;22.50;10.67;;;6.40;99.90;;;;;;5076544;28;20480;-73
2021/12/17 00:10:15;;;;;;;24.97;12.03;;;6.30;99.90;;;;;;5076124;28;20786;-73
2021/12/17 00:12:45;;;;;;;24.80;12.03;;;6.30;99.90;;;;;;5076402;28;20767;-74
2021/12/17 00:15:12;;;;;;;29.47;10.43;;;6.30;99.90;;;;;;5075978;28;20461;-74
2021/12/17 00:17:51;;;;;;;26.20;11.87;;;6.30;99.90;;;;;;5076185;28;20911;-74
2021/12/17 00:20:42;;;;;;;25.80;11.33;;;6.30;99.90;;;;;;5076076;28;20442;-74
2021/12/17 00:51:05;;;;;;;25.40;10.00;;;6.30;99.90;;;;;;5075695;28;20458;-72
2021/12/17 00:53:31;;;;;;;19.33;11.30;;;6.30;99.90;;;;;;5075264;28;20546;-72
2021/12/17 00:55:58;;;;;;;24.10;11.77;;;6.30;99.90;;;;;;5075457;28;20469;-72
2021/12/17 00:58:24;;;;;;;26.27;11.00;;;6.30;99.90;;;;;;5075360;28;20471;-72
2021/12/17 01:00:53;;;;;;;21.33;10.60;;;6.30;99.90;;;;;;5075176;28;20493;-71
2021/12/17 01:03:19;;;;;;;25.70;10.00;;;6.30;99.90;;;;;;5075200;28;20480;-73
2021/12/17 01:05:46;;;;;;;17.60;8.63;;;6.30;99.90;;;;;;5075047;28;20912;-72
2021/12/17 01:08:13;;;;;;;18.27;8.97;;;6.40;99.90;;;;;;5075744;28;20454;-71
2021/12/17 01:10:44;;;;;;;23.03;9.30;;;6.30;99.90;;;;;;5075220;28;20458;-72
2021/12/17 01:13:11;;;;;;;23.13;8.90;;;6.30;99.90;;;;;;5075122;28;20454;-72
2021/12/17 01:15:40;;;;;;;21.37;9.30;;;6.20;99.90;;;;;;5075263;28;20455;-71
2021/12/17 01:18:13;;;;;;;23.17;9.33;;;6.20;99.90;;;;;;5075154;28;20454;-71
2021/12/17 01:21:06;;;;;;;23.47;9.20;;;6.20;99.90;;;;;;5075067;28;20438;-71
2021/12/17 01:24:02;;;;;;;30.23;11.00;;;6.20;99.90;;;;;;5075386;28;20492;-71
2021/12/17 01:38:12;;;;;;;25.40;9.40;;;6.30;99.90;;;;;;5074610;28;20437;-71
2021/12/17 01:43:31;;;;;;;20.53;9.17;;;6.20;99.90;;;;;;5074875;28;20745;-71
2021/12/17 01:45:58;;;;;;;17.83;8.50;;;6.20;99.90;;;;;;5074564;28;20514;-70
2021/12/17 01:48:33;;;;;;;33.33;9.20;;;6.30;99.90;;;;;;5074496;28;20465;-72
2021/12/17 01:56:39;;;;;;;18.80;8.63;;;6.30;99.90;;;;;;5074058;28;20434;-71
2021/12/17 01:59:23;;;;;;;26.17;8.67;;;6.30;99.90;;;;;;5074116;28;20519;-70
2021/12/17 02:01:52;;;;;;;22.03;8.43;;;6.30;99.90;;;;;;5074308;28;20482;-70
2021/12/17 02:04:19;;;;;;;19.20;8.30;;;6.30;99.90;;;;;;5073865;28;20988;-71
2021/12/17 02:06:47;;;;;;;27.70;8.30;;;6.20;99.90;;;;;;5074268;28;20466;-70
2021/12/17 02:09:51;;;;;;;20.60;7.90;;;6.20;99.90;;;;;;5074595;28;20454;-70
2021/12/17 02:12:26;;;;;;;18.00;7.90;;;6.20;99.90;;;;;;5074140;28;20970;-70
2021/12/17 02:20:59;;;;;;;17.63;7.97;;;6.30;99.90;;;;;;5074017;28;20496;-70
2021/12/17 02:29:19;;;;;;;20.07;8.50;;;6.30;99.90;;;;;;5074427;28;20565;-70
2021/12/17 02:31:47;;;;;;;19.17;7.93;;;6.20;99.90;;;;;;5075060;28;20443;-70
2021/12/17 02:34:29;;;;;;;24.40;7.30;;;6.20;99.90;;;;;;5074719;28;20465;-70
2021/12/17 02:37:00;;;;;;;19.63;7.93;;;6.20;99.90;;;;;;5075242;28;20485;-70
2021/12/17 02:39:52;;;;;;;18.20;7.20;;;6.20;99.90;;;;;;5074937;28;20464;-70
2021/12/17 02:42:34;;;;;;;19.90;7.20;;;6.20;99.90;;;;;;5073451;28;20537;-70
2021/12/17 02:47:58;;;;;;;13.90;7.23;;;6.30;99.90;;;;;;5057946;28;20477;-70
2021/12/17 02:50:25;;;;;;;15.93;7.00;;;6.20;99.90;;;;;;5074059;28;20914;-69
2021/12/17 02:52:56;;;;;;;22.73;6.97;;;6.20;99.90;;;;;;5073743;28;20467;-69
2021/12/17 02:55:23;;;;;;;20.77;7.50;;;6.20;99.90;;;;;;5073605;28;20454;-70
2021/12/17 02:57:51;;;;;;;20.47;6.97;;;6.30;99.90;;;;;;5073912;28;20465;-69
2021/12/17 03:00:18;;;;;;;23.30;7.53;;;6.30;99.90;;;;;;5073330;28;20465;-74
2021/12/17 03:02:47;;;;;;;24.97;8.43;;;6.20;99.90;;;;;;5073972;28;20766;-69
2021/12/17 03:05:14;;;;;;;13.10;6.13;;;6.20;99.90;;;;;;5073898;28;20496;-69
2021/12/17 03:07:44;;;;;;;22.13;9.10;;;6.20;99.90;;;;;;5073666;28;20884;-69
2021/12/17 03:10:14;;;;;;;14.37;7.30;;;6.20;99.90;;;;;;5076667;28;20458;-69
2021/12/17 03:12:44;;;;;;;17.30;7.50;;;6.20;99.90;;;;;;5077402;28;20477;-70
2021/12/17 03:15:20;;;;;;;22.83;8.90;;;6.20;99.90;;;;;;5077123;28;20438;-70
2021/12/17 03:23:32;;;;;;;13.77;6.47;;;6.20;99.90;;;;;;5077043;28;20430;-71
2021/12/17 03:26:04;;;;;;;18.57;7.70;;;6.20;99.90;;;;;;5077010;28;20481;-70
2021/12/17 03:28:31;;;;;;;24.23;8.13;;;6.20;99.90;;;;;;5077457;28;20557;-69
2021/12/17 03:30:59;;;;;;;14.83;6.70;;;6.20;99.90;;;;;;5077349;28;20557;-69
2021/12/17 03:33:25;;;;;;;19.20;6.70;;;6.20;99.90;;;;;;5077237;28;20462;-70
2021/12/17 03:35:53;;;;;;;20.60;7.30;;;6.10;99.90;;;;;;5077124;28;20450;-70
2021/12/17 03:38:21;;;;;;;15.53;7.43;;;6.10;99.90;;;;;;5077159;28;20460;-70
2021/12/17 03:40:52;;;;;;;17.80;7.70;;;6.10;99.90;;;;;;5076994;28;20470;-70
2021/12/17 03:43:24;;;;;;;22.30;8.63;;;6.10;99.90;;;;;;5076700;28;20820;-69
2021/12/17 03:45:50;;;;;;;20.37;7.00;;;6.10;99.90;;;;;;5076752;28;20476;-69
2021/12/17 03:48:17;;;;;;;21.63;7.20;;;6.10;99.90;;;;;;5076520;28;20891;-69
2021/12/17 03:50:44;;;;;;;20.13;8.17;;;6.10;99.90;;;;;;5076766;28;20458;-69
2021/12/17 03:53:11;;;;;;;16.00;7.20;;;6.10;99.90;;;;;;5076484;28;20462;-69
2021/12/17 03:55:37;;;;;;;18.03;7.97;;;6.10;99.90;;;;;;5076659;28;20458;-70
2021/12/17 03:58:04;;;;;;;19.40;8.90;;;6.10;99.90;;;;;;5076942;28;20507;-70
2021/12/17 04:00:33;;;;;;;19.60;8.57;;;6.10;99.90;;;;;;5076358;28;20502;-69
2021/12/17 04:03:01;;;;;;;19.50;8.10;;;6.10;99.90;;;;;;5076977;28;20445;-69
2021/12/17 04:05:28;;;;;;;14.47;8.17;;;6.20;99.90;;;;;;5076683;28;20518;-69
2021/12/17 04:07:55;;;;;;;34.70;10.20;;;6.10;99.90;;;;;;5076652;28;20887;-70
2021/12/17 04:10:24;;;;;;;17.23;7.57;;;6.20;99.90;;;;;;5076785;28;20465;-69
2021/12/17 04:12:56;;;;;;;16.63;7.90;;;6.20;99.90;;;;;;5076256;28;20915;-69
2021/12/17 04:15:32;;;;;;;21.37;7.50;;;6.20;99.90;;;;;;5076387;28;20488;-69
2021/12/17 04:18:00;;;;;;;24.00;8.10;;;6.20;99.90;;;;;;5076692;28;20767;-69
2021/12/17 04:20:27;;;;;;;23.63;7.83;;;6.20;99.90;;;;;;5076055;28;20461;-69
2021/12/17 04:22:54;;;;;;;20.90;7.70;;;6.30;99.90;;;;;;5077441;28;20485;-69
2021/12/17 04:25:21;;;;;;;17.07;7.40;;;6.30;99.90;;;;;;5079545;28;20494;-69
2021/12/17 04:27:47;;;;;;;23.87;7.93;;;6.30;99.90;;;;;;5077140;28;20774;-68
2021/12/17 04:30:15;;;;;;;14.00;7.07;;;6.30;99.90;;;;;;5075757;28;20915;-69
2021/12/17 04:32:41;;;;;;;14.20;7.07;;;6.30;99.90;;;;;;5076031;28;20458;-68
2021/12/17 04:35:09;;;;;;;19.90;8.30;;;6.30;99.90;;;;;;5075841;28;20450;-68
2021/12/17 04:37:36;;;;;;;21.27;8.03;;;6.30;99.90;;;;;;5075528;28;20465;-68
2021/12/17 04:40:06;;;;;;;23.50;10.17;;;6.20;99.90;;;;;;5075792;28;20545;-69
2021/12/17 04:42:41;;;;;;;17.17;8.50;;;6.20;99.90;;;;;;5075959;28;20545;-68
2021/12/17 04:45:08;;;;;;;22.70;9.40;;;6.20;99.90;;;;;;5075613;28;20466;-68
2021/12/17 04:58:34;;;;;;;20.17;7.60;;;6.30;99.90;;;;;;5075537;28;20479;-68
2021/12/17 05:01:08;;;;;;;20.80;8.50;;;6.30;99.90;;;;;;5075752;28;20490;-68
2021/12/17 05:03:34;;;;;;;21.70;8.60;;;6.30;99.90;;;;;;5075958;28;20640;-69
2021/12/17 05:06:03;;;;;;;23.20;10.27;;;6.20;99.90;;;;;;5075885;28;20796;-69
2021/12/17 05:08:30;;;;;;;24.67;9.37;;;6.20;99.90;;;;;;5075830;28;20914;-69
2021/12/17 05:11:18;;;;;;;16.10;7.70;;;6.20;99.90;;;;;;5075977;28;20528;-68
2021/12/17 05:19:22;;;;;;;24.33;9.17;;;6.20;99.90;;;;;;5075978;28;20748;-68
2021/12/17 05:21:50;;;;;;;17.90;7.70;;;6.10;99.90;;;;;;5077455;28;20747;-69
2021/12/17 05:24:17;;;;;;;17.80;8.67;;;6.10;99.90;;;;;;5077034;28;20469;-68
2021/12/17 05:26:44;;;;;;;26.30;8.80;;;6.10;99.90;;;;;;5077030;28;20489;-69
2021/12/17 05:29:10;;;;;;;22.07;8.40;;;6.10;99.90;;;;;;5078202;28;20465;-69
2021/12/17 05:31:37;;;;;;;21.77;9.07;;;6.10;99.90;;;;;;5076383;28;20944;-69
2021/12/17 05:34:04;;;;;;;21.67;7.80;;;6.10;99.90;;;;;;5076608;28;20846;-69
2021/12/17 05:36:30;;;;;;;15.13;7.93;;;6.00;99.90;;;;;;5076139;28;20576;-68
2021/12/17 05:38:58;;;;;;;18.07;8.90;;;6.00;99.90;;;;;;5075785;28;20469;-68
2021/12/17 05:41:25;;;;;;;19.80;8.83;;;6.00;99.90;;;;;;5075365;28;20466;-68
2021/12/17 05:43:56;;;;;;;16.60;8.77;;;6.00;99.90;;;;;;5075853;28;20882;-69
2021/12/17 05:46:37;;;;;;;22.67;8.50;;;6.00;99.90;;;;;;5075612;28;20814;-68
2021/12/17 05:49:04;;;;;;;19.70;8.00;;;6.00;99.90;;;;;;5075564;28;20778;-69
2021/12/17 05:51:31;;;;;;;28.93;9.53;;;6.00;99.90;;;;;;5075813;28;20462;-69
2021/12/17 05:53:59;;;;;;;21.60;9.57;;;5.90;99.90;;;;;;5075766;28;20815;-68
2021/12/17 05:56:25;;;;;;;20.33;8.70;;;5.90;99.90;;;;;;5075044;28;20512;-69
2021/12/17 05:58:52;;;;;;;22.27;10.40;;;5.90;99.90;;;;;;5075371;28;20470;-69
2021/12/17 06:01:19;;;;;;;18.43;8.63;;;5.90;99.90;;;;;;5074997;28;20958;-69
2021/12/17 06:03:46;;;;;;;28.20;9.20;;;5.90;99.90;;;;;;5075574;28;20458;-69
2021/12/17 06:06:13;;;;;;;22.03;9.37;;;5.80;99.90;;;;;;5074796;28;20489;-69
2021/12/17 06:08:39;;;;;;;15.73;7.70;;;5.80;99.90;;;;;;5074557;28;21012;-69
2021/12/17 06:11:07;;;;;;;23.37;9.53;;;5.80;99.90;;;;;;5074419;28;20469;-68
2021/12/17 06:13:34;;;;;;;25.47;10.17;;;5.80;99.90;;;;;;5074192;28;20469;-68
2021/12/17 06:16:01;;;;;;;16.03;8.23;;;5.80;99.90;;;;;;5074209;28;20446;-68
2021/12/17 06:18:28;;;;;;;20.63;7.97;;;5.70;99.90;;;;;;5074417;28;20454;-68
2021/12/17 06:20:55;;;;;;;16.57;8.47;;;5.70;99.90;;;;;;5074206;28;20783;-68
2021/12/17 06:23:21;;;;;;;21.00;7.90;;;5.70;99.90;;;;;;5074614;28;20476;-69
2021/12/17 06:25:49;;;;;;;19.97;8.40;;;5.70;99.90;;;;;;5074307;28;20486;-69
2021/12/17 06:28:17;;;;;;;16.93;6.90;;;5.60;99.90;;;;;;5073850;28;20458;-68
2021/12/17 06:30:44;;;;;;;21.80;7.93;;;5.60;99.90;;;;;;5074536;28;20481;-68
2021/12/17 06:33:11;;;;;;;14.00;7.30;;;5.60;99.90;;;;;;5074211;28;20466;-69
2021/12/17 06:35:38;;;;;;;15.07;7.80;;;5.70;99.90;;;;;;5074305;28;20465;-69
2021/12/17 06:38:06;;;;;;;22.30;9.20;;;5.70;99.90;;;;;;5074307;28;20515;-68
2021/12/17 06:40:33;;;;;;;17.70;6.90;;;5.70;99.90;;;;;;5073797;28;20465;-69
2021/12/17 06:43:00;;;;;;;15.93;7.00;;;5.80;99.90;;;;;;5073654;28;20454;-68
2021/12/17 06:45:41;;;;;;;18.37;7.20;;;5.80;99.90;;;;;;5077870;28;20485;-68
2021/12/17 06:48:10;;;;;;;14.80;7.03;;;5.80;99.90;;;;;;5078121;28;20438;-69
2021/12/17 06:59:09;;;;;;;17.20;6.73;;;5.70;99.90;;;;;;5077457;28;20885;-68
2021/12/17 07:19:04;;;;;;;18.33;8.90;;;5.80;99.90;;;;;;5076958;28;20422;-68
2021/12/17 07:24:14;;;;;;;18.90;7.67;;;5.80;99.90;;;;;;5074115;28;20515;-68
2021/12/17 07:32:20;;;;;;;18.23;6.97;;;5.90;99.90;;;;;;5046199;28;20824;-68
2021/12/17 07:35:02;;;;;;;20.77;8.10;;;5.90;99.90;;;;;;5077005;28;20438;-68
2021/12/17 07:40:23;;;;;;;18.23;7.17;;;5.90;99.90;;;;;;5041395;28;20829;-67
2021/12/17 07:42:50;;;;;;;13.67;6.70;;;5.90;99.90;;;;;;5077028;28;20458;-68
2021/12/17 07:45:17;;;;;;;14.80;6.37;;;5.90;99.90;;;;;;5076305;28;20985;-68
2021/12/17 07:47:43;;;;;;;17.30;7.50;;;6.00;99.90;;;;;;5077026;28;20458;-68
2021/12/17 07:50:12;;;;;;;17.00;7.07;;;6.00;99.90;;;;;;5077444;28;20465;-69
2021/12/17 07:52:38;;;;;;;19.77;6.90;;;6.10;99.90;;;;;;5076986;28;20458;-68
2021/12/17 07:55:05;;;;;;;11.00;6.00;;;6.10;99.90;;;;;;5077945;28;20512;-69
2021/12/17 07:57:32;;;;;;;16.97;7.33;;;6.00;99.90;;;;;;5079803;28;20454;-68
2021/12/17 07:59:59;;;;;;;11.83;5.90;;;6.00;99.90;;;;;;5077192;28;20462;-68
2021/12/17 08:02:26;;;;;;;14.10;6.70;;;6.00;99.90;;;;;;5076341;28;20497;-68
2021/12/17 08:04:52;;;;;;;15.10;7.37;;;6.00;99.90;;;;;;5076608;28;20786;-68
2021/12/17 08:07:20;;;;;;;12.73;6.40;;;6.00;99.90;;;;;;5076748;28;20478;-69
2021/12/17 08:09:47;;;;;;;13.97;6.20;;;6.10;99.90;;;;;;5076852;28;20485;-69
2021/12/17 08:12:14;;;;;;;14.23;6.40;;;6.10;99.90;;;;;;5076985;28;20454;-68
2021/12/17 08:14:40;;;;;;;14.90;6.10;;;6.10;99.90;;;;;;5076598;28;20461;-69
2021/12/17 08:17:29;;;;;;;13.80;6.33;;;6.10;99.90;;;;;;5076646;28;20454;-68
2021/12/17 08:25:30;;;;;;;17.70;6.07;;;6.10;99.90;;;;;;5076125;28;20430;-68
2021/12/17 08:28:04;;;;;;;15.37;6.63;;;6.10;99.90;;;;;;5076490;28;20962;-68
2021/12/17 08:30:38;;;;;;;26.03;6.33;;;6.10;99.90;;;;;;5076524;28;20451;-68
2021/12/17 08:33:06;;;;;;;18.70;6.23;;;6.00;99.90;;;;;;5076967;28;20449;-68
2021/12/17 08:35:34;;;;;;;11.60;5.87;;;6.00;99.90;;;;;;5076232;28;20545;-68
2021/12/17 08:38:04;;;;;;;14.87;6.40;;;6.00;99.90;;;;;;5076091;28;20492;-68
2021/12/17 08:40:32;;;;;;;19.43;6.53;;;6.00;99.90;;;;;;5076476;28;20824;-69
2021/12/17 08:42:58;;;;;;;14.83;6.00;;;6.10;99.90;;;;;;5076012;28;20454;-69
2021/12/17 08:45:25;;;;;;;17.23;5.40;;;6.10;99.90;;;;;;5076077;28;20552;-68
2021/12/17 08:47:52;;;;;;;17.07;6.87;;;6.20;99.90;;;;;;5075914;28;20462;-68
2021/12/17 08:50:19;;;;;;;19.53;6.93;;;6.20;99.90;;;;;;5076333;28;20473;-69
2021/12/17 08:52:47;;;;;;;13.50;6.00;;;6.20;99.90;;;;;;5076193;28;20817;-68
2021/12/17 08:55:16;;;;;;;19.63;6.67;;;6.20;99.90;;;;;;5076791;28;20454;-68
2021/12/17 08:57:43;;;;;;;11.57;5.80;;;6.20;99.90;;;;;;5077446;28;20454;-68
2021/12/17 09:00:12;;;;;;;11.27;5.50;;;6.30;99.90;;;;;;5075897;28;20465;-69
2021/12/17 09:02:41;;;;;;;16.63;6.43;;;6.30;99.90;;;;;;5076132;28;20453;-68
2021/12/17 09:05:09;;;;;;;19.53;5.77;;;6.30;99.90;;;;;;5075794;28;20458;-69
2021/12/17 09:07:36;;;;;;;18.80;8.90;;;6.30;99.90;;;;;;5075048;28;20471;-68
2021/12/17 09:10:05;;;;;;;14.70;6.60;;;6.30;99.90;;;;;;5075470;28;20469;-69
2021/12/17 09:12:36;;;;;;;14.20;6.50;;;6.30;99.90;;;;;;5075137;28;20948;-68
2021/12/17 09:15:02;;;;;;;12.70;6.23;;;6.40;99.90;;;;;;5074933;28;20457;-68
2021/12/17 09:17:29;;;;;;;15.20;6.10;;;6.40;99.90;;;;;;5075036;28;20481;-69
2021/12/17 09:19:56;;;;;;;16.63;6.00;;;6.50;99.90;;;;;;5074977;28;20565;-68
2021/12/17 09:22:24;;;;;;;16.70;6.40;;;6.50;99.90;;;;;;5074547;28;20922;-69
2021/12/17 09:24:50;;;;;;;13.43;5.20;;;6.50;99.90;;;;;;5075008;28;20758;-68
2021/12/17 09:27:17;;;;;;;13.07;5.07;;;6.60;99.90;;;;;;5074977;28;20473;-70
2021/12/17 09:29:45;;;;;;;15.07;5.30;;;6.60;99.90;;;;;;5074997;28;20454;-69
2021/12/17 09:32:12;;;;;;;15.20;6.20;;;6.60;99.90;;;;;;5075211;28;20458;-68
2021/12/17 09:34:39;;;;;;;10.63;6.23;;;6.60;99.90;;;;;;5075364;28;20930;-68
2021/12/17 09:37:06;;;;;;;10.90;5.00;;;6.60;99.90;;;;;;5074921;28;20461;-68
2021/12/17 09:39:33;;;;;;;11.73;4.70;;;6.60;99.90;;;;;;5074814;28;20785;-67
2021/12/17 09:42:00;;;;;;;11.50;4.33;;;6.60;99.90;;;;;;5075070;28;20854;-68
2021/12/17 09:44:27;;;;;;;11.77;5.50;;;6.70;99.90;;;;;;5074805;28;20459;-68
2021/12/17 09:46:57;;;;;;;20.63;9.07;;;6.70;99.90;;;;;;5075036;28;20489;-68
2021/12/17 09:49:24;;;;;;;13.60;5.20;;;6.70;99.90;;;;;;5075226;28;20500;-68
2021/12/17 09:51:51;;;;;;;12.93;6.07;;;6.70;99.90;;;;;;5074311;28;20458;-68
2021/12/17 09:54:18;;;;;;;11.70;5.20;;;6.70;99.90;;;;;;5075113;28;20825;-70
2021/12/17 09:56:46;;;;;;;9.37;5.07;;;6.80;99.90;;;;;;5075484;28;20454;-68
2021/12/17 09:59:14;;;;;;;10.07;4.70;;;6.80;99.90;;;;;;5075427;28;20458;-68
2021/12/17 10:01:43;;;;;;;14.40;4.70;;;6.80;99.90;;;;;;5074211;28;20486;-68
2021/12/17 10:04:16;;;;;;;11.53;4.87;;;6.80;99.90;;;;;;5074537;28;20552;-68
2021/12/17 10:06:43;;;;;;;15.80;5.37;;;6.80;99.90;;;;;;5074345;28;20850;-68
2021/12/17 10:09:12;;;;;;;11.17;4.60;;;6.80;99.90;;;;;;5074541;28;20458;-68
2021/12/17 10:11:39;;;;;;;12.07;4.60;;;6.80;99.90;;;;;;5073930;28;20464;-69
2021/12/17 10:14:19;;;;;;;13.73;4.47;;;6.90;99.90;;;;;;5074124;28;20462;-69
2021/12/17 10:16:46;;;;;;;10.10;5.50;;;6.90;99.90;;;;;;5074401;28;20445;-69
2021/12/17 10:19:34;;;;;;;9.57;4.63;;;6.90;99.90;;;;;;5078047;28;20540;-69
2021/12/17 10:22:11;;;;;;;10.10;4.03;;;6.90;99.90;;;;;;5078028;28;20465;-68
2021/12/17 10:24:38;;;;;;;11.07;4.63;;;6.90;99.90;;;;;;5078410;28;20752;-68
2021/12/17 10:27:19;;;;;;;10.00;4.70;;;6.90;99.90;;;;;;5078480;28;20478;-68
2021/12/17 10:29:46;;;;;;;7.50;4.07;;;6.90;99.90;;;;;;5078699;28;20821;-70
2021/12/17 10:32:18;;;;;;;12.50;4.33;;;6.90;99.90;;;;;;5078103;28;20899;-68
2021/12/17 10:35:07;;;;;;;8.10;3.70;;;6.90;99.90;;;;;;5078348;28;20439;-68
2021/12/17 10:37:41;;;;;;;13.00;4.27;;;6.90;99.90;;;;;;5077786;28;20509;-68
2021/12/17 10:40:20;;;;;;;12.50;4.60;;;6.80;99.90;;;;;;5077822;28;20481;-68
2021/12/17 10:42:59;;;;;;;15.90;4.13;;;6.80;99.90;;;;;;5077851;28;20465;-68
2021/12/17 10:45:28;;;;;;;10.00;4.13;;;6.90;99.90;;;;;;5077998;28;20477;-68
2021/12/17 10:48:13;;;;;;;12.50;4.37;;;6.80;99.90;;;;;;5077719;28;20857;-69
2021/12/17 10:50:40;;;;;;;11.23;3.40;;;6.80;99.90;;;;;;5078108;28;20468;-68
2021/12/17 10:53:09;;;;;;;13.27;4.47;;;6.90;99.90;;;;;;5077952;28;20454;-68
2021/12/17 10:55:37;;;;;;;12.33;4.10;;;6.90;99.90;;;;;;5078089;28;20458;-68
2021/12/17 10:58:08;;;;;;;9.63;4.30;;;6.90;99.90;;;;;;5077637;28;20871;-68
2021/12/17 11:00:42;;;;;;;8.30;3.20;;;6.90;99.90;;;;;;5077433;28;20482;-68
2021/12/17 11:03:11;;;;;;;10.97;4.60;;;6.90;99.90;;;;;;5077963;28;20453;-68
2021/12/17 11:05:37;;;;;;;13.47;4.40;;;6.90;99.90;;;;;;5077759;28;20462;-68
2021/12/17 11:08:24;;;;;;;11.33;4.53;;;6.90;99.90;;;;;;5077816;28;20478;-68
2021/12/17 11:10:57;;;;;;;12.60;4.93;;;6.90;99.90;;;;;;5077919;28;20536;-68
2021/12/17 11:13:27;;;;;;;11.43;4.90;;;6.90;99.90;;;;;;5078227;28;20809;-68
2021/12/17 11:15:55;;;;;;;6.90;3.20;;;7.00;99.90;;;;;;5077556;28;20462;-68
2021/12/17 11:18:25;;;;;;;12.70;4.57;;;7.00;99.90;;;;;;5077274;28;20457;-68
2021/12/17 11:20:55;;;;;;;9.80;3.60;;;7.00;99.90;;;;;;5078364;28;20465;-68
2021/12/17 11:23:24;;;;;;;11.73;4.10;;;7.00;99.90;;;;;;5080872;28;20488;-69
2021/12/17 11:25:54;;;;;;;13.73;4.50;;;7.00;99.90;;;;;;5081530;28;20483;-68
2021/12/17 11:28:22;;;;;;;9.43;3.40;;;7.00;99.90;;;;;;5077786;28;20660;-68
2021/12/17 11:30:50;;;;;;;9.97;4.00;;;7.00;99.90;;;;;;5077070;28;20926;-69
2021/12/17 11:33:17;;;;;;;14.20;5.57;;;7.10;99.90;;;;;;5078125;28;20465;-68
2021/12/17 11:35:46;;;;;;;8.83;3.50;;;7.00;99.90;;;;;;5077739;28;20524;-68
2021/12/17 11:38:15;;;;;;;6.47;3.27;;;7.00;99.90;;;;;;5077842;28;20458;-68
2021/12/17 11:40:48;;;;;;;9.97;3.33;;;7.00;99.90;;;;;;5077600;28;20505;-69
2021/12/17 11:43:48;;;;;;;12.07;3.67;;;7.00;99.90;;;;;;5077326;28;20508;-68
2021/12/17 11:46:15;;;;;;;9.37;3.80;;;7.10;99.90;;;;;;5077219;28;20516;-68
2021/12/17 11:48:53;;;;;;;9.93;3.70;;;7.10;99.90;;;;;;5077178;28;20454;-68
2021/12/17 11:51:24;;;;;;;8.13;3.40;;;7.10;99.90;;;;;;5076642;28;20537;-69
2021/12/17 11:54:07;;;;;;;10.33;3.20;;;7.10;99.90;;;;;;5076533;28;20439;-69
2021/12/17 11:56:41;;;;;;;10.53;3.87;;;7.10;99.90;;;;;;5076536;28;20462;-68
2021/12/17 11:59:11;;;;;;;10.80;3.93;;;7.10;99.90;;;;;;5076798;28;20470;-68
2021/12/17 12:01:53;;;;;;;12.83;4.17;;;7.10;99.90;;;;;;5075994;28;20482;-67
2021/12/17 12:04:40;;;;;;;8.40;3.67;;;7.10;99.90;;;;;;5076155;28;20895;-69
2021/12/17 12:07:09;;;;;;;11.60;3.70;;;7.10;99.90;;;;;;5067085;28;20958;-68
2021/12/17 12:09:56;;;;;;;10.80;4.07;;;7.10;99.90;;;;;;5076444;28;20793;-69
2021/12/17 12:12:25;;;;;;;6.93;3.70;;;7.20;99.90;;;;;;5076698;28;20458;-69
2021/12/17 12:14:53;;;;;;;10.30;3.20;;;7.20;99.90;;;;;;5076436;28;20537;-68
2021/12/17 12:18:03;;;;;;;7.33;3.20;;;7.20;99.90;;;;;;5076323;28;20457;-69
2021/12/17 12:20:51;;;;;;;10.43;3.50;;;7.20;99.90;;;;;;5076693;28;20898;-68
2021/12/17 12:23:21;;;;;;;12.17;3.20;;;7.10;99.90;;;;;;5076567;28;20465;-68
2021/12/17 12:26:21;;;;;;;8.77;3.57;;;7.20;99.90;;;;;;5076093;28;20454;-69
2021/12/17 12:29:16;;;;;;;8.60;2.90;;;7.20;99.90;;;;;;5075833;28;20795;-69
2021/12/17 12:31:54;;;;;;;11.00;3.87;;;7.20;99.90;;;;;;5072431;28;20561;-68
2021/12/17 12:34:22;;;;;;;5.13;3.40;;;7.30;99.90;;;;;;5075973;28;20507;-68
2021/12/17 12:36:53;;;;;;;7.57;3.03;;;7.30;99.90;;;;;;5075575;28;20933;-68
2021/12/17 12:39:22;;;;;;;11.47;3.80;;;7.30;99.90;;;;;;5075589;28;20952;-68
2021/12/17 12:42:01;;;;;;;15.50;3.30;;;7.30;99.90;;;;;;5074808;28;20466;-67
2021/12/17 12:45:10;;;;;;;9.90;3.60;;;7.30;99.90;;;;;;5075474;28;20438;-67
2021/12/17 12:47:50;;;;;;;9.77;3.63;;;7.20;99.90;;;;;;5075297;28;21017;-68
2021/12/17 12:50:19;;;;;;;9.47;3.70;;;7.20;99.90;;;;;;5075462;28;20485;-68
2021/12/17 12:52:50;;;;;;;9.50;4.13;;;7.20;99.90;;;;;;5075327;28;20938;-67
2021/12/17 12:55:21;;;;;;;6.40;2.90;;;7.30;99.90;;;;;;5076449;28;20449;-69
2021/12/17 12:57:52;;;;;;;5.20;2.63;;;7.30;99.90;;;;;;5075624;28;20458;-68
2021/12/17 13:00:22;;;;;;;11.67;4.17;;;7.30;99.90;;;;;;5075629;28;20455;-68
2021/12/17 13:02:53;;;;;;;13.33;4.37;;;7.40;99.90;;;;;;5076206;28;20449;-68
2021/12/17 13:05:20;;;;;;;8.60;3.70;;;7.40;99.90;;;;;;5077093;28;20439;-67
2021/12/17 13:07:50;;;;;;;10.63;4.70;;;7.50;99.90;;;;;;5077824;28;20478;-68
2021/12/17 13:10:19;;;;;;;7.10;3.30;;;7.50;99.90;;;;;;5077060;28;20899;-68
2021/12/17 13:12:57;;;;;;;5.90;3.30;;;7.50;99.90;;;;;;5075375;28;20478;-68
2021/12/17 13:15:41;;;;;;;8.03;3.53;;;7.50;99.90;;;;;;5075473;28;20487;-68
2021/12/17 13:21:19;;;;;;;10.60;3.37;;;7.40;99.90;;;;;;5075068;28;20442;-68
2021/12/17 13:23:51;;;;;;;5.53;3.40;;;7.40;99.90;;;;;;5075604;28;20533;-69
2021/12/17 13:26:19;;;;;;;5.97;2.80;;;7.40;99.90;;;;;;5076660;28;20770;-68
2021/12/17 13:28:51;;;;;;;7.67;3.30;;;7.50;99.90;;;;;;5075219;28;20506;-68
2021/12/17 13:31:36;;;;;;;11.80;3.17;;;7.50;99.90;;;;;;5074598;28;20453;-68
2021/12/17 13:34:07;;;;;;;10.23;2.80;;;7.50;99.90;;;;;;5074736;28;20485;-68
2021/12/17 13:37:11;;;;;;;13.07;3.20;;;7.50;99.90;;;;;;5074710;28;20725;-68
2021/12/17 13:39:41;;;;;;;7.27;3.10;;;7.50;99.90;;;;;;5074842;28;20469;-68
2021/12/17 13:42:09;;;;;;;5.43;3.33;;;7.40;99.90;;;;;;5074323;28;20546;-68
2021/12/17 13:44:41;;;;;;;7.57;3.57;;;7.40;99.90;;;;;;5074583;28;20465;-68
2021/12/17 13:47:10;;;;;;;9.40;3.40;;;7.40;99.90;;;;;;5074713;28;20453;-69
2021/12/17 13:49:37;;;;;;;9.33;3.20;;;7.40;99.90;;;;;;5073286;28;20469;-68
2021/12/17 13:52:05;;;;;;;41.30;24.00;;;7.50;99.90;;;;;;5074324;28;20464;-68
2021/12/17 13:54:33;;;;;;;14.10;5.30;;;7.50;99.90;;;;;;5074218;28;20458;-68
2021/12/17 13:57:01;;;;;;;8.40;3.53;;;7.40;99.90;;;;;;5074538;28;20462;-69
2021/12/17 13:59:29;;;;;;;6.47;3.20;;;7.40;99.90;;;;;;5074292;28;20464;-68
2021/12/17 14:01:58;;;;;;;8.73;3.10;;;7.40;99.90;;;;;;5074081;28;20501;-68
2021/12/17 14:04:25;;;;;;;5.00;2.47;;;7.40;99.90;;;;;;5074464;28;20438;-67
2021/12/17 14:06:53;;;;;;;5.10;2.60;;;7.40;99.90;;;;;;5074269;28;20495;-67
2021/12/17 14:09:24;;;;;;;14.13;3.67;;;7.40;99.90;;;;;;5073879;28;20492;-69
2021/12/17 14:11:51;;;;;;;9.17;2.97;;;7.40;99.90;;;;;;5074487;28;20434;-68
2021/12/17 14:14:25;;;;;;;5.67;3.53;;;7.40;99.90;;;;;;5074282;28;20462;-69
2021/12/17 14:17:01;;;;;;;4.60;2.20;;;7.40;99.90;;;;;;5074074;28;20439;-68
2021/12/17 14:19:39;;;;;;;7.20;3.43;;;7.30;99.90;;;;;;5074500;28;20454;-68
2021/12/17 14:22:26;;;;;;;6.77;3.03;;;7.30;99.90;;;;;;5074165;28;20457;-69
2021/12/17 14:24:54;;;;;;;5.10;3.13;;;7.30;99.90;;;;;;5075049;28;20796;-69
2021/12/17 14:27:21;;;;;;;5.77;2.27;;;7.30;99.90;;;;;;5074467;28;20457;-69
2021/12/17 14:29:48;;;;;;;9.27;3.23;;;7.30;99.90;;;;;;5074090;28;20457;-68
2021/12/17 14:32:19;;;;;;;8.30;3.10;;;7.30;99.90;;;;;;5074459;28;20945;-68
2021/12/17 14:34:46;;;;;;;15.97;3.27;;;7.30;99.90;;;;;;5074109;28;20466;-68
2021/12/17 14:37:13;;;;;;;9.30;4.13;;;7.30;99.90;;;;;;5073943;28;20458;-68
2021/12/17 14:39:44;;;;;;;9.40;4.23;;;7.30;99.90;;;;;;5074444;28;20476;-69
2021/12/17 14:42:13;;;;;;;8.87;4.13;;;7.40;99.90;;;;;;5074290;28;20640;-69
2021/12/17 14:44:52;;;;;;;10.03;4.10;;;7.30;99.90;;;;;;5073950;28;20454;-69
2021/12/17 14:47:25;;;;;;;8.00;3.03;;;7.30;99.90;;;;;;5073662;28;20500;-69
2021/12/17 15:01:09;;;;;;;8.40;3.80;;;7.40;99.90;;;;;;5073820;28;20484;-68
2021/12/17 15:03:41;;;;;;;15.87;4.60;;;7.40;99.90;;;;;;5073730;28;20507;-68
2021/12/17 15:06:09;;;;;;;7.40;3.40;;;7.40;99.90;;;;;;5076884;28;20434;-68
2021/12/17 15:08:37;;;;;;;7.53;3.03;;;7.40;99.90;;;;;;5077299;28;20486;-70
2021/12/17 15:11:10;;;;;;;14.53;3.50;;;7.40;99.90;;;;;;5077306;28;20456;-68
2021/12/17 15:13:37;;;;;;;10.10;3.83;;;7.30;99.90;;;;;;5077270;28;20438;-69
2021/12/17 15:16:04;;;;;;;7.80;2.87;;;7.20;99.90;;;;;;5077319;28;20458;-69
2021/12/17 15:18:31;;;;;;;7.47;3.23;;;7.20;99.90;;;;;;5076970;28;20947;-69
2021/12/17 15:21:00;;;;;;;9.37;3.00;;;7.20;99.90;;;;;;5076724;28;20515;-69
2021/12/17 15:23:27;;;;;;;9.40;3.20;;;7.10;99.90;;;;;;5076839;28;20473;-69
2021/12/17 15:25:54;;;;;;;10.23;3.33;;;7.10;99.90;;;;;;5077256;28;20454;-69
2021/12/17 15:28:23;;;;;;;5.83;2.57;;;7.00;99.90;;;;;;5077096;28;20485;-68
2021/12/17 15:30:52;;;;;;;5.67;3.03;;;7.00;99.90;;;;;;5077289;28;20473;-68